createdAt,value
2022-12-20T04:45:24.114Z,3.30
2022-12-20T04:47:50.833Z,3.20
2022-12-20T04:50:19.079Z,3.30
2022-12-20T04:53:04.522Z,3.10
2022-12-20T04:55:31.137Z,3.00
2022-12-20T04:58:02.124Z,3.10
2022-12-20T05:00:34.199Z,3.20
2022-12-20T05:03:01.165Z,3.10
2022-12-20T05:05:28.229Z,3.30
2022-12-20T05:07:55.433Z,3.40
2022-12-20T05:10:22.019Z,3.40
2022-12-20T05:12:48.847Z,3.40
2022-12-20T05:15:15.514Z,3.40
2022-12-20T05:17:42.140Z,3.40
2022-12-20T05:20:10.193Z,3.40
2022-12-20T05:22:55.512Z,3.50
2022-12-20T05:25:40.675Z,3.60
2022-12-20T05:28:07.812Z,3.70
2022-12-20T05:30:34.670Z,3.70
2022-12-20T05:33:01.286Z,3.70
2022-12-20T05:35:27.943Z,3.70
2022-12-20T05:37:54.772Z,3.70
2022-12-20T05:40:22.405Z,3.70
2022-12-20T05:42:49.054Z,3.70
2022-12-20T05:45:15.696Z,3.60
2022-12-20T05:47:42.428Z,3.40
2022-12-20T05:50:12.273Z,3.30
2022-12-20T05:52:43.393Z,3.20
2022-12-20T05:55:10.368Z,3.10
2022-12-20T05:57:37.051Z,3.10
2022-12-20T06:00:04.927Z,2.80
2022-12-20T06:02:31.730Z,2.90
2022-12-20T06:04:59.183Z,3.10
2022-12-20T06:07:28.928Z,3.20
2022-12-20T06:09:56.181Z,3.10
2022-12-20T06:12:23.105Z,3.30
2022-12-20T06:14:49.750Z,3.40
2022-12-20T06:17:16.562Z,3.40
2022-12-20T06:19:43.232Z,3.40
2022-12-20T06:22:09.881Z,3.40
2022-12-20T06:24:36.611Z,3.40
2022-12-20T06:27:03.447Z,3.20
2022-12-20T06:29:30.456Z,3.20
2022-12-20T06:31:57.164Z,2.60
2022-12-20T06:34:23.820Z,2.80
2022-12-20T06:36:50.480Z,3.00
2022-12-20T06:39:17.022Z,3.00
2022-12-20T06:41:43.609Z,3.00
2022-12-20T06:44:10.250Z,3.10
2022-12-20T06:46:36.911Z,3.10
2022-12-20T06:49:03.657Z,3.10
2022-12-20T06:51:30.213Z,3.20
2022-12-20T06:53:56.849Z,3.20
2022-12-20T06:56:23.515Z,3.10
2022-12-20T06:58:50.169Z,2.90
2022-12-20T07:01:16.789Z,3.10
2022-12-20T07:03:43.455Z,3.20
2022-12-20T07:06:10.083Z,3.30
2022-12-20T07:08:36.834Z,3.20
2022-12-20T07:11:04.809Z,3.20
2022-12-20T07:13:31.483Z,3.30
2022-12-20T07:15:59.430Z,3.40
2022-12-20T07:18:26.202Z,3.50
2022-12-20T07:20:53.022Z,3.50
2022-12-20T07:23:19.939Z,3.30
2022-12-20T07:26:00.239Z,3.50
2022-12-20T07:28:27.522Z,3.60
2022-12-20T07:30:54.492Z,3.50
2022-12-20T07:33:21.263Z,3.50
2022-12-20T07:35:52.561Z,3.60
2022-12-20T07:38:21.352Z,3.60
2022-12-20T07:40:47.973Z,3.60
2022-12-20T07:43:14.747Z,3.60
2022-12-20T07:45:41.404Z,3.70
2022-12-20T07:48:12.497Z,3.80
2022-12-20T07:50:41.604Z,3.80
2022-12-20T07:53:09.144Z,3.70
2022-12-20T07:55:36.588Z,3.70
2022-12-20T07:58:05.684Z,3.70
2022-12-20T08:00:32.432Z,3.80
2022-12-20T08:03:02.711Z,3.90
2022-12-20T08:05:29.520Z,3.90
2022-12-20T08:07:59.554Z,4.00
2022-12-20T08:10:27.025Z,3.80
2022-12-20T08:12:54.523Z,3.80
2022-12-20T08:15:23.004Z,3.70
2022-12-20T08:17:50.538Z,3.80
2022-12-20T08:20:17.440Z,3.90
2022-12-20T08:22:44.021Z,4.00
2022-12-20T08:25:11.907Z,4.00
2022-12-20T08:27:38.506Z,3.90
2022-12-20T08:30:06.029Z,4.00
2022-12-20T08:32:32.661Z,4.00
2022-12-20T08:34:59.195Z,4.00
2022-12-20T08:37:25.822Z,4.00
2022-12-20T08:39:52.433Z,4.00
2022-12-20T08:42:19.109Z,4.10
2022-12-20T08:44:45.828Z,3.90
2022-12-20T08:47:12.549Z,4.00
2022-12-20T08:49:45.709Z,4.10
2022-12-20T08:52:14.206Z,4.10
2022-12-20T08:54:40.777Z,4.10
2022-12-20T08:57:08.085Z,4.30
2022-12-20T08:59:34.991Z,4.40
2022-12-20T09:02:01.798Z,4.40
2022-12-20T09:04:28.503Z,4.50
2022-12-20T09:06:55.131Z,4.60
2022-12-20T09:09:21.863Z,4.70
2022-12-20T09:11:48.463Z,4.60
2022-12-20T09:14:15.044Z,4.70
2022-12-20T09:16:41.648Z,4.60
2022-12-20T09:19:08.298Z,4.60
2022-12-20T09:21:35.300Z,4.60
2022-12-20T09:24:02.038Z,4.70
2022-12-20T09:26:28.701Z,4.60
2022-12-20T09:28:55.358Z,4.60
2022-12-20T09:31:23.251Z,4.70
2022-12-20T09:33:50.059Z,4.90
2022-12-20T09:36:18.021Z,5.10
2022-12-20T09:38:44.986Z,5.10
2022-12-20T09:41:22.939Z,5.20
2022-12-20T09:43:49.944Z,5.20
2022-12-20T09:46:17.042Z,5.20
2022-12-20T09:48:44.045Z,5.20
2022-12-20T09:51:10.668Z,5.30
2022-12-20T09:53:45.461Z,5.30
2022-12-20T09:56:38.531Z,5.40
2022-12-20T09:59:06.497Z,5.30
2022-12-20T10:01:38.828Z,5.30
2022-12-20T10:04:08.040Z,5.30
2022-12-20T10:06:34.696Z,5.30
2022-12-20T10:09:05.816Z,5.50
2022-12-20T10:11:48.038Z,5.50
2022-12-20T10:14:19.945Z,5.70
2022-12-20T10:16:48.660Z,5.90
2022-12-20T10:19:34.646Z,6.10
2022-12-20T10:22:20.725Z,6.20
2022-12-20T10:24:58.803Z,6.20
2022-12-20T10:27:25.479Z,6.30
2022-12-20T10:29:52.190Z,6.50
2022-12-20T10:32:23.293Z,6.50
2022-12-20T10:34:57.979Z,6.40
2022-12-20T10:37:24.876Z,6.30
2022-12-20T10:39:52.034Z,6.30
2022-12-20T10:42:33.731Z,6.20
2022-12-20T10:45:00.588Z,6.30
2022-12-20T10:47:36.780Z,6.30
2022-12-20T10:50:29.947Z,6.40
2022-12-20T10:53:17.179Z,6.40
2022-12-20T10:55:43.824Z,6.30
2022-12-20T10:58:10.511Z,6.40
2022-12-20T11:00:37.143Z,6.60
2022-12-20T11:03:24.766Z,6.50
2022-12-20T11:05:54.154Z,6.40
2022-12-20T11:08:37.796Z,6.30
2022-12-20T11:11:13.284Z,6.50
2022-12-20T11:13:41.001Z,6.60
2022-12-20T11:16:21.819Z,6.70
2022-12-20T11:19:07.120Z,6.80
2022-12-20T11:21:48.564Z,6.80
2022-12-20T11:24:23.842Z,6.80
2022-12-20T11:26:53.469Z,6.80
2022-12-20T11:29:32.578Z,6.70
2022-12-20T11:32:18.066Z,6.70
2022-12-20T11:34:47.644Z,6.50
2022-12-20T11:37:20.570Z,6.60
2022-12-20T11:39:59.564Z,6.90
2022-12-20T11:42:38.373Z,7.00
2022-12-20T11:45:31.410Z,7.50
2022-12-20T11:48:29.171Z,8.00
2022-12-20T11:51:02.753Z,8.60
2022-12-20T11:53:39.128Z,9.00
2022-12-20T11:56:12.306Z,9.30
2022-12-20T11:59:13.137Z,9.50
2022-12-20T12:02:02.058Z,9.30
2022-12-20T12:04:35.221Z,9.00
2022-12-20T12:07:07.846Z,8.80
2022-12-20T12:09:34.520Z,8.70
2022-12-20T12:12:09.709Z,8.70
2022-12-20T12:14:50.604Z,8.70
2022-12-20T12:17:21.889Z,8.70
2022-12-20T12:19:49.883Z,8.70
2022-12-20T12:22:27.324Z,8.70
2022-12-20T12:24:56.152Z,8.70
2022-12-20T12:27:24.791Z,8.70
2022-12-20T12:29:54.275Z,8.80
2022-12-20T12:32:38.140Z,8.60
2022-12-20T12:35:11.278Z,8.90
2022-12-20T12:37:44.060Z,9.40
2022-12-20T12:40:21.574Z,9.80
2022-12-20T12:42:56.615Z,10.30
2022-12-20T12:45:26.414Z,10.80
2022-12-20T12:47:58.432Z,11.30
2022-12-20T12:50:46.187Z,11.40
2022-12-20T12:53:16.926Z,11.60
2022-12-20T12:55:46.249Z,11.80
2022-12-20T12:58:24.990Z,11.80
2022-12-20T13:00:52.842Z,11.90
2022-12-20T13:03:37.208Z,11.80
2022-12-20T13:06:22.655Z,11.70
2022-12-20T13:08:50.430Z,11.80
2022-12-20T13:11:29.575Z,11.80
2022-12-20T13:14:12.805Z,12.00
2022-12-20T13:17:10.808Z,12.00
2022-12-20T13:19:27.893Z,12.40
2022-12-20T13:22:12.899Z,12.60
2022-12-20T13:24:58.494Z,12.30
2022-12-20T13:27:25.135Z,11.70
2022-12-20T13:30:12.365Z,11.30
2022-12-20T13:32:48.258Z,11.10
2022-12-20T13:35:27.962Z,11.60
2022-12-20T13:38:13.001Z,12.00
2022-12-20T13:40:44.283Z,12.10
2022-12-20T13:43:25.279Z,11.80
2022-12-20T13:45:55.223Z,11.80
2022-12-20T13:48:49.872Z,12.10
2022-12-20T13:51:20.800Z,12.20
2022-12-20T13:53:58.958Z,12.50
2022-12-20T13:56:28.690Z,12.20
2022-12-20T13:58:56.115Z,12.30
2022-12-20T14:01:25.135Z,12.00
2022-12-20T14:03:52.585Z,11.70
2022-12-20T14:06:26.270Z,11.40
2022-12-20T14:08:53.628Z,11.00
2022-12-20T14:11:24.299Z,11.10
2022-12-20T14:13:58.326Z,11.10
2022-12-20T14:16:26.347Z,11.20
2022-12-20T14:19:13.203Z,11.00
2022-12-20T14:21:41.072Z,10.60
2022-12-20T14:24:09.912Z,10.10
2022-12-20T14:26:40.966Z,9.70
2022-12-20T14:29:11.203Z,9.20
2022-12-20T14:31:40.119Z,8.70
2022-12-20T14:34:12.343Z,8.40
2022-12-20T14:36:39.097Z,8.20
2022-12-20T14:39:26.110Z,8.10
2022-12-20T14:42:03.067Z,7.90
2022-12-20T14:44:30.745Z,7.80
2022-12-20T14:47:02.263Z,7.70
2022-12-20T14:49:32.994Z,7.60
2022-12-20T14:52:11.804Z,7.50
2022-12-20T14:55:07.626Z,7.60
2022-12-20T14:57:35.268Z,7.60
2022-12-20T15:00:14.285Z,7.60
2022-12-20T15:02:52.184Z,7.50
2022-12-20T15:05:38.650Z,7.40
2022-12-20T15:08:11.342Z,7.20
2022-12-20T15:10:38.267Z,7.20
2022-12-20T15:13:05.043Z,7.10
2022-12-20T15:15:31.654Z,7.00
2022-12-20T15:17:58.258Z,6.90
2022-12-20T15:20:24.839Z,6.70
2022-12-20T15:22:51.385Z,6.60
2022-12-20T15:25:18.328Z,6.60
2022-12-20T15:27:45.020Z,6.50
2022-12-20T15:30:13.714Z,6.30
2022-12-20T15:32:54.500Z,6.30
2022-12-20T15:35:22.032Z,6.00
2022-12-20T15:37:48.715Z,5.80
2022-12-20T15:40:15.410Z,5.70
2022-12-20T15:42:42.928Z,5.80
2022-12-20T15:45:15.976Z,5.80
2022-12-20T15:47:42.749Z,5.80
2022-12-20T15:50:10.416Z,5.80
2022-12-20T15:52:37.095Z,5.70
2022-12-20T15:55:03.978Z,5.60
2022-12-20T15:57:31.107Z,5.60
2022-12-20T16:00:00.536Z,5.60
2022-12-20T16:02:29.134Z,5.70
2022-12-20T16:04:55.812Z,5.50
2022-12-20T16:07:22.734Z,5.50
2022-12-20T16:09:49.562Z,5.60
2022-12-20T16:12:18.373Z,5.70
2022-12-20T16:14:44.986Z,5.70
2022-12-20T16:17:15.215Z,5.90
2022-12-20T16:19:42.415Z,6.00
2022-12-20T16:22:15.684Z,6.10
2022-12-20T16:24:43.446Z,6.10
2022-12-20T16:27:10.224Z,6.00
2022-12-20T16:29:36.856Z,5.90
2022-12-20T16:32:08.262Z,5.80
2022-12-20T16:34:34.857Z,6.00
2022-12-20T16:37:01.631Z,6.10
2022-12-20T16:39:28.466Z,6.00
2022-12-20T16:41:55.103Z,6.00
2022-12-20T16:44:23.004Z,6.00
2022-12-20T16:46:49.640Z,6.10
2022-12-20T16:49:20.375Z,6.00
2022-12-20T16:51:48.770Z,5.90
2022-12-20T16:54:19.688Z,6.00
2022-12-20T16:56:47.600Z,6.10
2022-12-20T16:59:19.983Z,6.10
2022-12-20T17:01:48.741Z,6.20
2022-12-20T17:04:17.379Z,6.10
2022-12-20T17:06:44.691Z,6.10
2022-12-20T17:11:55.564Z,6.00
2022-12-20T17:14:22.104Z,6.00
2022-12-20T17:16:48.843Z,6.00
2022-12-20T17:19:15.502Z,5.70
2022-12-20T17:24:27.211Z,5.70
2022-12-20T17:26:53.748Z,5.60
2022-12-20T17:29:20.472Z,5.50
2022-12-20T17:31:47.798Z,5.60
2022-12-20T17:34:23.346Z,5.50
2022-12-20T17:36:51.287Z,5.70
2022-12-20T17:39:17.814Z,5.80
2022-12-20T17:41:44.951Z,5.90
2022-12-20T17:44:18.743Z,5.70
2022-12-20T17:46:45.535Z,5.60
2022-12-20T17:49:12.116Z,5.70
2022-12-20T17:51:38.800Z,5.70
2022-12-20T17:54:05.538Z,5.80
2022-12-20T17:56:33.503Z,6.00
2022-12-20T17:59:00.646Z,6.00
2022-12-20T18:01:29.375Z,6.00
2022-12-20T18:04:06.263Z,6.00
2022-12-20T18:06:34.262Z,6.00
2022-12-20T18:09:00.877Z,6.00
2022-12-20T18:11:28.322Z,5.60
2022-12-20T18:13:56.609Z,5.30
2022-12-20T18:16:25.195Z,5.50
2022-12-20T18:18:53.906Z,5.60
2022-12-20T18:21:21.119Z,5.70
2022-12-20T18:23:47.666Z,5.60
2022-12-20T18:26:14.233Z,5.60
2022-12-20T18:28:42.636Z,5.60
2022-12-20T18:31:10.783Z,5.80
2022-12-20T18:33:37.730Z,5.70
2022-12-20T18:36:04.404Z,5.70
2022-12-20T18:38:31.169Z,5.60
2022-12-20T18:40:58.796Z,5.50
2022-12-20T18:43:25.394Z,5.60
2022-12-20T18:45:51.999Z,5.70
2022-12-20T18:48:18.583Z,5.70
2022-12-20T18:50:45.580Z,5.60
2022-12-20T18:53:12.089Z,5.60
2022-12-20T18:55:39.055Z,5.70
2022-12-20T18:58:05.818Z,5.70
2022-12-20T19:00:32.370Z,5.70
2022-12-20T19:02:59.902Z,5.80
2022-12-20T19:05:27.049Z,5.50
2022-12-20T19:07:53.668Z,5.60
2022-12-20T19:10:20.203Z,5.70
2022-12-20T19:12:46.727Z,5.90
2022-12-20T19:15:14.525Z,6.00
2022-12-20T19:17:42.004Z,5.80
2022-12-20T19:20:08.696Z,5.20
2022-12-20T19:22:35.626Z,5.40
2022-12-20T19:25:02.211Z,5.50
2022-12-20T19:27:29.665Z,5.70
2022-12-20T19:29:56.285Z,5.60
2022-12-20T19:32:22.875Z,5.60
2022-12-20T19:34:49.492Z,5.50
2022-12-20T19:37:16.083Z,5.50
2022-12-20T19:39:43.287Z,5.60
2022-12-20T19:42:26.607Z,5.60
2022-12-20T19:44:53.284Z,5.60
2022-12-20T19:47:19.882Z,5.70
2022-12-20T19:49:46.452Z,5.70
2022-12-20T19:52:12.996Z,5.50
2022-12-20T19:54:39.850Z,5.60
2022-12-20T19:57:06.582Z,5.70
2022-12-20T19:59:33.123Z,5.70
2022-12-20T20:01:59.808Z,5.70
2022-12-20T20:04:26.571Z,5.60
2022-12-20T20:06:53.062Z,5.60
2022-12-20T20:09:19.638Z,5.70
2022-12-20T20:11:46.224Z,5.70
2022-12-20T20:14:12.941Z,5.50
2022-12-20T20:16:39.583Z,5.40
2022-12-20T20:19:06.903Z,5.50
2022-12-20T20:21:36.228Z,5.70
2022-12-20T20:24:02.846Z,5.30
2022-12-20T20:26:31.528Z,5.50
2022-12-20T20:28:58.351Z,5.50
2022-12-20T20:31:25.019Z,5.50
2022-12-20T20:33:51.724Z,5.40
2022-12-20T20:36:20.289Z,5.40
2022-12-20T20:38:47.212Z,5.30
2022-12-20T20:41:14.212Z,5.40
2022-12-20T20:43:40.981Z,5.50
2022-12-20T20:46:08.408Z,5.60
2022-12-20T20:48:35.598Z,5.50
2022-12-20T20:51:02.374Z,5.40
2022-12-20T20:53:33.480Z,5.50
2022-12-20T20:56:00.941Z,5.30
2022-12-20T20:58:27.448Z,5.40
2022-12-20T21:00:57.891Z,5.50
2022-12-20T21:03:24.512Z,5.50
2022-12-20T21:08:37.623Z,5.60
2022-12-20T21:11:08.163Z,5.60
2022-12-20T21:13:35.057Z,5.50
2022-12-20T21:16:05.398Z,5.50
2022-12-20T21:18:31.966Z,5.50
2022-12-20T21:20:58.774Z,5.30
2022-12-20T21:23:25.326Z,5.30
2022-12-20T21:25:57.899Z,5.30
2022-12-20T21:28:24.502Z,5.40
2022-12-20T21:31:00.862Z,5.50
2022-12-20T21:33:27.925Z,5.40
2022-12-20T21:36:17.905Z,5.50
2022-12-20T21:38:51.238Z,5.50
2022-12-20T21:41:18.872Z,5.60
2022-12-20T21:43:45.870Z,5.60
2022-12-20T21:46:12.546Z,5.70
2022-12-20T21:48:39.744Z,5.70
2022-12-20T21:51:09.959Z,5.50
2022-12-20T21:53:40.516Z,5.50
2022-12-20T21:56:07.146Z,5.10
2022-12-20T21:58:33.666Z,5.30
2022-12-20T22:01:00.400Z,5.30
2022-12-20T22:03:27.173Z,5.40
2022-12-20T22:05:55.482Z,5.50
2022-12-20T22:08:22.511Z,5.60
2022-12-20T22:10:57.712Z,5.70
2022-12-20T22:13:24.285Z,5.80
2022-12-20T22:15:51.138Z,5.70
2022-12-20T22:18:17.700Z,5.60
2022-12-20T22:20:44.867Z,5.60
2022-12-20T22:23:11.490Z,5.70
2022-12-20T22:25:39.009Z,5.70
2022-12-20T22:28:05.676Z,5.80
2022-12-20T22:30:32.853Z,5.80
2022-12-20T22:32:59.395Z,5.60
2022-12-20T22:35:25.956Z,5.50
2022-12-20T22:37:52.614Z,5.20
2022-12-20T22:40:19.376Z,5.20
2022-12-20T22:42:46.023Z,5.20
2022-12-20T22:45:12.592Z,5.40
2022-12-20T22:47:40.329Z,5.50
2022-12-20T22:50:07.225Z,5.50
2022-12-20T22:52:34.391Z,5.50
2022-12-20T22:55:01.044Z,5.20
2022-12-20T22:57:27.747Z,5.10
2022-12-20T22:59:58.597Z,5.20
2022-12-20T23:02:25.769Z,5.20
2022-12-20T23:04:52.780Z,5.10
2022-12-20T23:07:20.131Z,5.20
2022-12-20T23:09:47.398Z,5.20
2022-12-20T23:12:32.794Z,5.30
2022-12-20T23:15:17.861Z,5.30
2022-12-20T23:17:44.462Z,5.40
2022-12-20T23:20:29.527Z,5.50
2022-12-20T23:22:56.380Z,5.50
2022-12-20T23:25:23.011Z,5.50
2022-12-20T23:27:50.014Z,5.40
2022-12-20T23:30:18.020Z,5.50
2022-12-20T23:32:44.839Z,5.30
2022-12-20T23:35:12.982Z,5.30
2022-12-20T23:37:39.844Z,5.30
2022-12-20T23:40:07.221Z,5.40
2022-12-20T23:42:33.765Z,5.50
2022-12-20T23:45:00.291Z,5.60
2022-12-20T23:47:27.032Z,5.60
2022-12-20T23:49:53.585Z,5.50
2022-12-20T23:52:20.352Z,5.60
2022-12-20T23:54:46.863Z,5.50
2022-12-20T23:57:13.904Z,5.40
2022-12-20T23:59:40.477Z,5.30
